EmailTwitter


Observations de surface / Royaume-Uni / EGLL (03772)

Régions: Québec | Canada | États-Unis | Europe | France | UK | Ailleurs
Station
Affichage
Infos & localisation pour EGLL (03772) | Aide pour décoder les METARs

Observations prises le 2020-08-14 à 22H50 UTC à LONDON/HEATHROW, UK (EGLL)

Etat du ciel: couvert.

Température: 18.0 Celsius

Point de rosée: 17.0 Celsius

Humidité relative: 94%

Indice Humidex: 23.

Vents: Nord à 7 km/h ou 4 noeuds.

Pression au niveau moyen de la mer: 101.50 kilopascals.

Visibilité horizontale: 4.97 milles terrestres ou 7.95 kilomètres.

Hauteur du plafond: 213 mètres ( 700 pieds ).

Observation METAR:

EGLL 142250Z AUTO 36004KT 330V050 8000 BKN007 BKN010 OVC015 18/17 Q1015 NOSIG=